Airfield :
LOGIN :

Register | Disclaimer

   EN    FR    IT 

 










Legend :    VFR   Marginal VFR   IFR   Intensive IFR   Very Intensive IFR
Visi :
Ceiling :
>= 8 km
>= 3000ft
5 to 8 km
1000 to 3000 ft
1500m to 5 km
500 to 1000 ft
800 to 1500m
200 to 500 ft
< 800m
< 200 ft
Symbols :   Thunderstorms  Fog  Heavy snow  Heavy precipitations  Wind > 20 kt
SIGMETs :     Misc.  Thunderstorms  Icing  Turbulence  Mountain Waves  Volcanic Ashes







- Airport Elevation : 1202 ft
- IATA code : IGS


ETSI - Ingolstadt

CURRENT METAR :
  • 171520Z 30013KT 9999 FEW030 BKN300 18/11 Q1018 BLU+

EXPIRED METARs :
  • 171420Z 30012KT 9999 SCT030 SCT280 18/11 Q1018 BLU+FCST CANCEL
  • 171320Z 31010KT 9999 FEW020 BKN030 17/12 Q1018 BLU BLU BECMG BLU+

TAF TAF ETSI
Valid from the 17 at 11:00 until the 17 at 20:00 UTC


171025Z 1711/1720 30004KT 9999 NSW SCT020 BKN060 BKN280
BECMG 1711/1713 30008KT 9999 NSW FEW040 SCT060 BKN280
No reported NOTAMs for that airfield.



MET'MAP, your aeronautical weather chart ! - Copyright ORBIFLY December 2007 - Disclaimer

ORBIFLY MET'MAP TEAM :

Programming & Development : Alexandra Zaïnal
Concept & Development : Baudouin d'Aumeries
Co-Development & Prog : Marc-Olivier Méhu
Technical & hardware support : Manuel Goepfert

Contact : metmap@orbifly.com




SOURCES & CREDITS :

   NOAA